$GPRMC,000000.000,V,5200.165,N,01641.212,E,0.00,0.00,010070,,*14 $GPGGA,000000.000,5200.165,N,01641.212,E,0,00,0.0,0.000,M,0.0,M,,*6B $GPRMC,000000.000,V,5200.175,N,01641.241,E,0.00,0.00,010070,,*13 $GPGGA,000000.000,5200.175,N,01641.241,E,0,00,0.0,0.000,M,0.0,M,,*6C $GPRMC,000000.000,V,5200.187,N,01641.241,E,0.00,0.00,010070,,*1E $GPGGA,000000.000,5200.187,N,01641.241,E,0,00,0.0,0.000,M,0.0,M,,*61 $GPRMC,000000.000,V,5200.213,N,01641.204,E,0.00,0.00,010070,,*11 $GPGGA,000000.000,5200.213,N,01641.204,E,0,00,0.0,0.000,M,0.0,M,,*6E $GPRMC,000000.000,V,5200.255,N,01641.145,E,0.00,0.00,010070,,*15 $GPGGA,000000.000,5200.255,N,01641.145,E,0,00,0.0,0.000,M,0.0,M,,*6A $GPRMC,000000.000,V,5200.306,N,01641.221,E,0.00,0.00,010070,,*13 $GPGGA,000000.000,5200.306,N,01641.221,E,0,00,0.0,0.000,M,0.0,M,,*6C $GPRMC,000000.000,V,5200.339,N,01641.276,E,0.00,0.00,010070,,*1D $GPGGA,000000.000,5200.339,N,01641.276,E,0,00,0.0,0.000,M,0.0,M,,*62 $GPRMC,000000.000,V,5200.388,N,01641.199,E,0.00,0.00,010070,,*15 $GPGGA,000000.000,5200.388,N,01641.199,E,0,00,0.0,0.000,M,0.0,M,,*6A $GPRMC,000000.000,V,5200.416,N,01641.145,E,0.00,0.00,010070,,*14 $GPGGA,000000.000,5200.416,N,01641.145,E,0,00,0.0,0.000,M,0.0,M,,*6B $GPRMC,000000.000,V,5200.433,N,01641.121,E,0.00,0.00,010070,,*11 $GPGGA,000000.000,5200.433,N,01641.121,E,0,00,0.0,0.000,M,0.0,M,,*6E $GPRMC,000000.000,V,5200.450,N,01641.097,E,0.00,0.00,010070,,*18 $GPGGA,000000.000,5200.450,N,01641.097,E,0,00,0.0,0.000,M,0.0,M,,*67 $GPRMC,000000.000,V,5200.466,N,01641.079,E,0.00,0.00,010070,,*1D $GPGGA,000000.000,5200.466,N,01641.079,E,0,00,0.0,0.000,M,0.0,M,,*62 $GPRMC,000000.000,V,5200.482,N,01641.067,E,0.00,0.00,010070,,*18 $GPGGA,000000.000,5200.482,N,01641.067,E,0,00,0.0,0.000,M,0.0,M,,*67 $GPRMC,000000.000,V,5200.501,N,01641.058,E,0.00,0.00,010070,,*1E $GPGGA,000000.000,5200.501,N,01641.058,E,0,00,0.0,0.000,M,0.0,M,,*61 $GPRMC,000000.000,V,5200.518,N,01641.053,E,0.00,0.00,010070,,*1D $GPGGA,000000.000,5200.518,N,01641.053,E,0,00,0.0,0.000,M,0.0,M,,*62 $GPRMC,000000.000,V,5200.539,N,01641.049,E,0.00,0.00,010070,,*15 $GPGGA,000000.000,5200.539,N,01641.049,E,0,00,0.0,0.000,M,0.0,M,,*6A $GPRMC,000000.000,V,5200.560,N,01641.040,E,0.00,0.00,010070,,*10 $GPGGA,000000.000,5200.560,N,01641.040,E,0,00,0.0,0.000,M,0.0,M,,*6F $GPRMC,000000.000,V,5200.578,N,01641.030,E,0.00,0.00,010070,,*1E $GPGGA,000000.000,5200.578,N,01641.030,E,0,00,0.0,0.000,M,0.0,M,,*61 $GPRMC,000000.000,V,5200.597,N,01641.018,E,0.00,0.00,010070,,*15 $GPGGA,000000.000,5200.597,N,01641.018,E,0,00,0.0,0.000,M,0.0,M,,*6A $GPRMC,000000.000,V,5200.623,N,01641.002,E,0.00,0.00,010070,,*12 $GPGGA,000000.000,5200.623,N,01641.002,E,0,00,0.0,0.000,M,0.0,M,,*6D $GPRMC,000000.000,V,5200.643,N,01640.991,E,0.00,0.00,010070,,*16 $GPGGA,000000.000,5200.643,N,01640.991,E,0,00,0.0,0.000,M,0.0,M,,*69 $GPRMC,000000.000,V,5200.672,N,01640.973,E,0.00,0.00,010070,,*18 $GPGGA,000000.000,5200.672,N,01640.973,E,0,00,0.0,0.000,M,0.0,M,,*67 $GPRMC,000000.000,V,5200.695,N,01640.964,E,0.00,0.00,010070,,*17 $GPGGA,000000.000,5200.695,N,01640.964,E,0,00,0.0,0.000,M,0.0,M,,*68 $GPRMC,000000.000,V,5200.706,N,01640.955,E,0.00,0.00,010070,,*1E $GPGGA,000000.000,5200.706,N,01640.955,E,0,00,0.0,0.000,M,0.0,M,,*61 $GPRMC,000000.000,V,5200.727,N,01640.928,E,0.00,0.00,010070,,*17 $GPGGA,000000.000,5200.727,N,01640.928,E,0,00,0.0,0.000,M,0.0,M,,*68 $GPRMC,000000.000,V,5200.765,N,01640.882,E,0.00,0.00,010070,,*10 $GPGGA,000000.000,5200.765,N,01640.882,E,0,00,0.0,0.000,M,0.0,M,,*6F $GPRMC,000000.000,V,5200.808,N,01640.828,E,0.00,0.00,010070,,*14 $GPGGA,000000.000,5200.808,N,01640.828,E,0,00,0.0,0.000,M,0.0,M,,*6B $GPRMC,000000.000,V,5200.841,N,01640.788,E,0.00,0.00,010070,,*1C $GPGGA,000000.000,5200.841,N,01640.788,E,0,00,0.0,0.000,M,0.0,M,,*63 $GPRMC,000000.000,V,5200.869,N,01640.753,E,0.00,0.00,010070,,*10 $GPGGA,000000.000,5200.869,N,01640.753,E,0,00,0.0,0.000,M,0.0,M,,*6F $GPRMC,000000.000,V,5200.891,N,01640.725,E,0.00,0.00,010070,,*16 $GPGGA,000000.000,5200.891,N,01640.725,E,0,00,0.0,0.000,M,0.0,M,,*69 $GPRMC,000000.000,V,5200.910,N,01640.703,E,0.00,0.00,010070,,*1A $GPGGA,000000.000,5200.910,N,01640.703,E,0,00,0.0,0.000,M,0.0,M,,*65 $GPRMC,000000.000,V,5200.921,N,01640.689,E,0.00,0.00,010070,,*1B $GPGGA,000000.000,5200.921,N,01640.689,E,0,00,0.0,0.000,M,0.0,M,,*64 $GPRMC,000000.000,V,5200.933,N,01640.677,E,0.00,0.00,010070,,*19 $GPGGA,000000.000,5200.933,N,01640.677,E,0,00,0.0,0.000,M,0.0,M,,*66 $GPRMC,000000.000,V,5200.944,N,01640.671,E,0.00,0.00,010070,,*1F $GPGGA,000000.000,5200.944,N,01640.671,E,0,00,0.0,0.000,M,0.0,M,,*60 $GPRMC,000000.000,V,5200.995,N,01640.661,E,0.00,0.00,010070,,*12 $GPGGA,000000.000,5200.995,N,01640.661,E,0,00,0.0,0.000,M,0.0,M,,*6D $GPRMC,000000.000,V,5201.017,N,01640.661,E,0.00,0.00,010070,,*10 $GPGGA,000000.000,5201.017,N,01640.661,E,0,00,0.0,0.000,M,0.0,M,,*6F $GPRMC,000000.000,V,5201.033,N,01640.664,E,0.00,0.00,010070,,*13 $GPGGA,000000.000,5201.033,N,01640.664,E,0,00,0.0,0.000,M,0.0,M,,*6C $GPRMC,000000.000,V,5201.059,N,01640.666,E,0.00,0.00,010070,,*1D $GPGGA,000000.000,5201.059,N,01640.666,E,0,00,0.0,0.000,M,0.0,M,,*62 $GPRMC,000000.000,V,5201.085,N,01640.664,E,0.00,0.00,010070,,*1E $GPGGA,000000.000,5201.085,N,01640.664,E,0,00,0.0,0.000,M,0.0,M,,*61 $GPRMC,000000.000,V,5201.112,N,01640.663,E,0.00,0.00,010070,,*16 $GPGGA,000000.000,5201.112,N,01640.663,E,0,00,0.0,0.000,M,0.0,M,,*69 $GPRMC,000000.000,V,5201.139,N,01640.662,E,0.00,0.00,010070,,*1E $GPGGA,000000.000,5201.139,N,01640.662,E,0,00,0.0,0.000,M,0.0,M,,*61 $GPRMC,000000.000,V,5201.173,N,01640.650,E,0.00,0.00,010070,,*11 $GPGGA,000000.000,5201.173,N,01640.650,E,0,00,0.0,0.000,M,0.0,M,,*6E $GPRMC,000000.000,V,5201.214,N,01640.632,E,0.00,0.00,010070,,*17 $GPGGA,000000.000,5201.214,N,01640.632,E,0,00,0.0,0.000,M,0.0,M,,*68 $GPRMC,000000.000,V,5201.250,N,01640.618,E,0.00,0.00,010070,,*1F $GPGGA,000000.000,5201.250,N,01640.618,E,0,00,0.0,0.000,M,0.0,M,,*60 $GPRMC,000000.000,V,5201.289,N,01640.603,E,0.00,0.00,010070,,*11 $GPGGA,000000.000,5201.289,N,01640.603,E,0,00,0.0,0.000,M,0.0,M,,*6E $GPRMC,000000.000,V,5201.316,N,01640.588,E,0.00,0.00,010070,,*16 $GPGGA,000000.000,5201.316,N,01640.588,E,0,00,0.0,0.000,M,0.0,M,,*69 $GPRMC,000000.000,V,5201.359,N,01640.573,E,0.00,0.00,010070,,*19 $GPGGA,000000.000,5201.359,N,01640.573,E,0,00,0.0,0.000,M,0.0,M,,*66 $GPRMC,000000.000,V,5201.377,N,01640.567,E,0.00,0.00,010070,,*10 $GPGGA,000000.000,5201.377,N,01640.567,E,0,00,0.0,0.000,M,0.0,M,,*6F $GPRMC,000000.000,V,5201.393,N,01640.564,E,0.00,0.00,010070,,*19 $GPGGA,000000.000,5201.393,N,01640.564,E,0,00,0.0,0.000,M,0.0,M,,*66 $GPRMC,000000.000,V,5201.403,N,01640.567,E,0.00,0.00,010070,,*14 $GPGGA,000000.000,5201.403,N,01640.567,E,0,00,0.0,0.000,M,0.0,M,,*6B $GPRMC,000000.000,V,5201.418,N,01640.570,E,0.00,0.00,010070,,*18 $GPGGA,000000.000,5201.418,N,01640.570,E,0,00,0.0,0.000,M,0.0,M,,*67 $GPRMC,000000.000,V,5201.427,N,01640.577,E,0.00,0.00,010070,,*13 $GPGGA,000000.000,5201.427,N,01640.577,E,0,00,0.0,0.000,M,0.0,M,,*6C $GPRMC,000000.000,V,5201.437,N,01640.590,E,0.00,0.00,010070,,*1B $GPGGA,000000.000,5201.437,N,01640.590,E,0,00,0.0,0.000,M,0.0,M,,*64 $GPRMC,000000.000,V,5201.449,N,01640.605,E,0.00,0.00,010070,,*1D $GPGGA,000000.000,5201.449,N,01640.605,E,0,00,0.0,0.000,M,0.0,M,,*62 $GPRMC,000000.000,V,5201.459,N,01640.628,E,0.00,0.00,010070,,*13 $GPGGA,000000.000,5201.459,N,01640.628,E,0,00,0.0,0.000,M,0.0,M,,*6C $GPRMC,000000.000,V,5201.467,N,01640.655,E,0.00,0.00,010070,,*14 $GPGGA,000000.000,5201.467,N,01640.655,E,0,00,0.0,0.000,M,0.0,M,,*6B $GPRMC,000000.000,V,5201.477,N,01640.695,E,0.00,0.00,010070,,*19 $GPGGA,000000.000,5201.477,N,01640.695,E,0,00,0.0,0.000,M,0.0,M,,*66 $GPRMC,000000.000,V,5201.492,N,01640.749,E,0.00,0.00,010070,,*12 $GPGGA,000000.000,5201.492,N,01640.749,E,0,00,0.0,0.000,M,0.0,M,,*6D $GPRMC,000000.000,V,5201.507,N,01640.825,E,0.00,0.00,010070,,*1A $GPGGA,000000.000,5201.507,N,01640.825,E,0,00,0.0,0.000,M,0.0,M,,*65 $GPRMC,000000.000,V,5201.528,N,01640.909,E,0.00,0.00,010070,,*18 $GPGGA,000000.000,5201.528,N,01640.909,E,0,00,0.0,0.000,M,0.0,M,,*67 $GPRMC,000000.000,V,5201.553,N,01641.008,E,0.00,0.00,010070,,*1D $GPGGA,000000.000,5201.553,N,01641.008,E,0,00,0.0,0.000,M,0.0,M,,*62 $GPRMC,000000.000,V,5201.570,N,01641.069,E,0.00,0.00,010070,,*1B $GPGGA,000000.000,5201.570,N,01641.069,E,0,00,0.0,0.000,M,0.0,M,,*64 $GPRMC,000000.000,V,5201.579,N,01641.110,E,0.00,0.00,010070,,*1D $GPGGA,000000.000,5201.579,N,01641.110,E,0,00,0.0,0.000,M,0.0,M,,*62 $GPRMC,000000.000,V,5201.591,N,01641.159,E,0.00,0.00,010070,,*16 $GPGGA,000000.000,5201.591,N,01641.159,E,0,00,0.0,0.000,M,0.0,M,,*69 $GPRMC,000000.000,V,5201.603,N,01641.209,E,0.00,0.00,010070,,*18 $GPGGA,000000.000,5201.603,N,01641.209,E,0,00,0.0,0.000,M,0.0,M,,*67 $GPRMC,000000.000,V,5201.614,N,01641.251,E,0.00,0.00,010070,,*13 $GPGGA,000000.000,5201.614,N,01641.251,E,0,00,0.0,0.000,M,0.0,M,,*6C $GPRMC,000000.000,V,5201.623,N,01641.297,E,0.00,0.00,010070,,*1D $GPGGA,000000.000,5201.623,N,01641.297,E,0,00,0.0,0.000,M,0.0,M,,*62 $GPRMC,000000.000,V,5201.637,N,01641.342,E,0.00,0.00,010070,,*11 $GPGGA,000000.000,5201.637,N,01641.342,E,0,00,0.0,0.000,M,0.0,M,,*6E $GPRMC,000000.000,V,5201.647,N,01641.372,E,0.00,0.00,010070,,*15 $GPGGA,000000.000,5201.647,N,01641.372,E,0,00,0.0,0.000,M,0.0,M,,*6A $GPRMC,000000.000,V,5201.661,N,01641.405,E,0.00,0.00,010070,,*16 $GPGGA,000000.000,5201.661,N,01641.405,E,0,00,0.0,0.000,M,0.0,M,,*69 $GPRMC,000000.000,V,5201.663,N,01641.425,E,0.00,0.00,010070,,*16 $GPGGA,000000.000,5201.663,N,01641.425,E,0,00,0.0,0.000,M,0.0,M,,*69 $GPRMC,000000.000,V,5201.652,N,01641.432,E,0.00,0.00,010070,,*12 $GPGGA,000000.000,5201.652,N,01641.432,E,0,00,0.0,0.000,M,0.0,M,,*6D $GPRMC,000000.000,V,5201.646,N,01641.423,E,0.00,0.00,010070,,*17 $GPGGA,000000.000,5201.646,N,01641.423,E,0,00,0.0,0.000,M,0.0,M,,*68 $GPRMC,000000.000,V,5201.634,N,01641.402,E,0.00,0.00,010070,,*11 $GPGGA,000000.000,5201.634,N,01641.402,E,0,00,0.0,0.000,M,0.0,M,,*6E $GPRMC,000000.000,V,5201.623,N,01641.396,E,0.00,0.00,010070,,*1D $GPGGA,000000.000,5201.623,N,01641.396,E,0,00,0.0,0.000,M,0.0,M,,*62 $GPRMC,000000.000,V,5201.596,N,01641.415,E,0.00,0.00,010070,,*1C $GPGGA,000000.000,5201.596,N,01641.415,E,0,00,0.0,0.000,M,0.0,M,,*63 $GPRMC,000000.000,V,5201.567,N,01641.419,E,0.00,0.00,010070,,*1E $GPGGA,000000.000,5201.567,N,01641.419,E,0,00,0.0,0.000,M,0.0,M,,*61 $GPRMC,000000.000,V,5201.543,N,01641.427,E,0.00,0.00,010070,,*15 $GPGGA,000000.000,5201.543,N,01641.427,E,0,00,0.0,0.000,M,0.0,M,,*6A $GPRMC,000000.000,V,5201.493,N,01641.429,E,0.00,0.00,010070,,*17 $GPGGA,000000.000,5201.493,N,01641.429,E,0,00,0.0,0.000,M,0.0,M,,*68 $GPRMC,000000.000,V,5201.466,N,01641.412,E,0.00,0.00,010070,,*15 $GPGGA,000000.000,5201.466,N,01641.412,E,0,00,0.0,0.000,M,0.0,M,,*6A $GPRMC,000000.000,V,5201.442,N,01641.416,E,0.00,0.00,010070,,*17 $GPGGA,000000.000,5201.442,N,01641.416,E,0,00,0.0,0.000,M,0.0,M,,*68 $GPRMC,000000.000,V,5201.419,N,01641.419,E,0.00,0.00,010070,,*16 $GPGGA,000000.000,5201.419,N,01641.419,E,0,00,0.0,0.000,M,0.0,M,,*69 $GPRMC,000000.000,V,5201.401,N,01641.421,E,0.00,0.00,010070,,*14 $GPGGA,000000.000,5201.401,N,01641.421,E,0,00,0.0,0.000,M,0.0,M,,*6B $GPRMC,000000.000,V,5201.377,N,01641.423,E,0.00,0.00,010070,,*10 $GPGGA,000000.000,5201.377,N,01641.423,E,0,00,0.0,0.000,M,0.0,M,,*6F $GPRMC,000000.000,V,5201.345,N,01641.429,E,0.00,0.00,010070,,*1B $GPGGA,000000.000,5201.345,N,01641.429,E,0,00,0.0,0.000,M,0.0,M,,*64 $GPRMC,000000.000,V,5201.317,N,01641.436,E,0.00,0.00,010070,,*12 $GPGGA,000000.000,5201.317,N,01641.436,E,0,00,0.0,0.000,M,0.0,M,,*6D $GPRMC,000000.000,V,5201.284,N,01641.442,E,0.00,0.00,010070,,*1A $GPGGA,000000.000,5201.284,N,01641.442,E,0,00,0.0,0.000,M,0.0,M,,*65 $GPRMC,000000.000,V,5201.262,N,01641.445,E,0.00,0.00,010070,,*15 $GPGGA,000000.000,5201.262,N,01641.445,E,0,00,0.0,0.000,M,0.0,M,,*6A $GPRMC,000000.000,V,5201.249,N,01641.439,E,0.00,0.00,010070,,*17 $GPGGA,000000.000,5201.249,N,01641.439,E,0,00,0.0,0.000,M,0.0,M,,*68 $GPRMC,000000.000,V,5201.230,N,01641.442,E,0.00,0.00,010070,,*15 $GPGGA,000000.000,5201.230,N,01641.442,E,0,00,0.0,0.000,M,0.0,M,,*6A $GPRMC,000000.000,V,5201.201,N,01641.450,E,0.00,0.00,010070,,*14 $GPGGA,000000.000,5201.201,N,01641.450,E,0,00,0.0,0.000,M,0.0,M,,*6B $GPRMC,000000.000,V,5201.165,N,01641.459,E,0.00,0.00,010070,,*1C $GPGGA,000000.000,5201.165,N,01641.459,E,0,00,0.0,0.000,M,0.0,M,,*63 $GPRMC,000000.000,V,5201.125,N,01641.468,E,0.00,0.00,010070,,*1A $GPGGA,000000.000,5201.125,N,01641.468,E,0,00,0.0,0.000,M,0.0,M,,*65 $GPRMC,000000.000,V,5201.104,N,01641.473,E,0.00,0.00,010070,,*13 $GPGGA,000000.000,5201.104,N,01641.473,E,0,00,0.0,0.000,M,0.0,M,,*6C $GPRMC,000000.000,V,5201.089,N,01641.477,E,0.00,0.00,010070,,*13 $GPGGA,000000.000,5201.089,N,01641.477,E,0,00,0.0,0.000,M,0.0,M,,*6C $GPRMC,000000.000,V,5201.084,N,01641.490,E,0.00,0.00,010070,,*17 $GPGGA,000000.000,5201.084,N,01641.490,E,0,00,0.0,0.000,M,0.0,M,,*68 $GPRMC,000000.000,V,5201.081,N,01641.509,E,0.00,0.00,010070,,*13 $GPGGA,000000.000,5201.081,N,01641.509,E,0,00,0.0,0.000,M,0.0,M,,*6C $GPRMC,000000.000,V,5201.066,N,01641.513,E,0.00,0.00,010070,,*11 $GPGGA,000000.000,5201.066,N,01641.513,E,0,00,0.0,0.000,M,0.0,M,,*6E $GPRMC,000000.000,V,5201.050,N,01641.518,E,0.00,0.00,010070,,*1F $GPGGA,000000.000,5201.050,N,01641.518,E,0,00,0.0,0.000,M,0.0,M,,*60 $GPRMC,000000.000,V,5201.019,N,01641.518,E,0.00,0.00,010070,,*12 $GPGGA,000000.000,5201.019,N,01641.518,E,0,00,0.0,0.000,M,0.0,M,,*6D $GPRMC,000000.000,V,5200.991,N,01641.519,E,0.00,0.00,010070,,*1B $GPGGA,000000.000,5200.991,N,01641.519,E,0,00,0.0,0.000,M,0.0,M,,*64 $GPRMC,000000.000,V,5200.969,N,01641.522,E,0.00,0.00,010070,,*14 $GPGGA,000000.000,5200.969,N,01641.522,E,0,00,0.0,0.000,M,0.0,M,,*6B $GPRMC,000000.000,V,5200.944,N,01641.526,E,0.00,0.00,010070,,*1F $GPGGA,000000.000,5200.944,N,01641.526,E,0,00,0.0,0.000,M,0.0,M,,*60 $GPRMC,000000.000,V,5200.909,N,01641.531,E,0.00,0.00,010070,,*10 $GPGGA,000000.000,5200.909,N,01641.531,E,0,00,0.0,0.000,M,0.0,M,,*6F $GPRMC,000000.000,V,5200.876,N,01641.536,E,0.00,0.00,010070,,*1E $GPGGA,000000.000,5200.876,N,01641.536,E,0,00,0.0,0.000,M,0.0,M,,*61 $GPRMC,000000.000,V,5200.850,N,01641.541,E,0.00,0.00,010070,,*1A $GPGGA,000000.000,5200.850,N,01641.541,E,0,00,0.0,0.000,M,0.0,M,,*65 $GPRMC,000000.000,V,5200.830,N,01641.548,E,0.00,0.00,010070,,*15 $GPGGA,000000.000,5200.830,N,01641.548,E,0,00,0.0,0.000,M,0.0,M,,*6A $GPRMC,000000.000,V,5200.818,N,01641.536,E,0.00,0.00,010070,,*16 $GPGGA,000000.000,5200.818,N,01641.536,E,0,00,0.0,0.000,M,0.0,M,,*69 $GPRMC,000000.000,V,5200.807,N,01641.523,E,0.00,0.00,010070,,*1C $GPGGA,000000.000,5200.807,N,01641.523,E,0,00,0.0,0.000,M,0.0,M,,*63 $GPRMC,000000.000,V,5200.644,N,01641.665,E,0.00,0.00,010070,,*14 $GPGGA,000000.000,5200.644,N,01641.665,E,0,00,0.0,0.000,M,0.0,M,,*6B $GPRMC,000000.000,V,5200.578,N,01641.714,E,0.00,0.00,010070,,*1F $GPGGA,000000.000,5200.578,N,01641.714,E,0,00,0.0,0.000,M,0.0,M,,*60 $GPRMC,000000.000,V,5200.544,N,01641.755,E,0.00,0.00,010070,,*15 $GPGGA,000000.000,5200.544,N,01641.755,E,0,00,0.0,0.000,M,0.0,M,,*6A $GPRMC,000000.000,V,5200.559,N,01641.783,E,0.00,0.00,010070,,*12 $GPGGA,000000.000,5200.559,N,01641.783,E,0,00,0.0,0.000,M,0.0,M,,*6D $GPRMC,000000.000,V,5200.563,N,01641.804,E,0.00,0.00,010070,,*1B $GPGGA,000000.000,5200.563,N,01641.804,E,0,00,0.0,0.000,M,0.0,M,,*64 $GPRMC,000000.000,V,5200.556,N,01641.827,E,0.00,0.00,010070,,*1C $GPGGA,000000.000,5200.556,N,01641.827,E,0,00,0.0,0.000,M,0.0,M,,*63 $GPRMC,000000.000,V,5200.540,N,01641.848,E,0.00,0.00,010070,,*12 $GPGGA,000000.000,5200.540,N,01641.848,E,0,00,0.0,0.000,M,0.0,M,,*6D $GPRMC,000000.000,V,5200.405,N,01641.979,E,0.00,0.00,010070,,*11 $GPGGA,000000.000,5200.405,N,01641.979,E,0,00,0.0,0.000,M,0.0,M,,*6E $GPRMC,000000.000,V,5200.377,N,01642.007,E,0.00,0.00,010070,,*10 $GPGGA,000000.000,5200.377,N,01642.007,E,0,00,0.0,0.000,M,0.0,M,,*6F $GPRMC,000000.000,V,5200.369,N,01642.027,E,0.00,0.00,010070,,*1D $GPGGA,000000.000,5200.369,N,01642.027,E,0,00,0.0,0.000,M,0.0,M,,*62 $GPRMC,000000.000,V,5200.404,N,01642.036,E,0.00,0.00,010070,,*11 $GPGGA,000000.000,5200.404,N,01642.036,E,0,00,0.0,0.000,M,0.0,M,,*6E $GPRMC,000000.000,V,5200.337,N,01642.096,E,0.00,0.00,010070,,*1C $GPGGA,000000.000,5200.337,N,01642.096,E,0,00,0.0,0.000,M,0.0,M,,*63 $GPRMC,000000.000,V,5200.292,N,01642.150,E,0.00,0.00,010070,,*19 $GPGGA,000000.000,5200.292,N,01642.150,E,0,00,0.0,0.000,M,0.0,M,,*66 $GPRMC,000000.000,V,5200.255,N,01642.196,E,0.00,0.00,010070,,*18 $GPGGA,000000.000,5200.255,N,01642.196,E,0,00,0.0,0.000,M,0.0,M,,*67 $GPRMC,000000.000,V,5200.222,N,01642.236,E,0.00,0.00,010070,,*11 $GPGGA,000000.000,5200.222,N,01642.236,E,0,00,0.0,0.000,M,0.0,M,,*6E $GPRMC,000000.000,V,5200.196,N,01642.258,E,0.00,0.00,010070,,*15 $GPGGA,000000.000,5200.196,N,01642.258,E,0,00,0.0,0.000,M,0.0,M,,*6A $GPRMC,000000.000,V,5200.156,N,01642.279,E,0.00,0.00,010070,,*1A $GPGGA,000000.000,5200.156,N,01642.279,E,0,00,0.0,0.000,M,0.0,M,,*65 $GPRMC,000000.000,V,5200.104,N,01642.301,E,0.00,0.00,010070,,*13 $GPGGA,000000.000,5200.104,N,01642.301,E,0,00,0.0,0.000,M,0.0,M,,*6C $GPRMC,000000.000,V,5200.050,N,01642.321,E,0.00,0.00,010070,,*11 $GPGGA,000000.000,5200.050,N,01642.321,E,0,00,0.0,0.000,M,0.0,M,,*6E $GPRMC,000000.000,V,5200.008,N,01642.370,E,0.00,0.00,010070,,*18 $GPGGA,000000.000,5200.008,N,01642.370,E,0,00,0.0,0.000,M,0.0,M,,*67 $GPRMC,000000.000,V,5159.915,N,01642.478,E,0.00,0.00,010070,,*1D $GPGGA,000000.000,5159.915,N,01642.478,E,0,00,0.0,0.000,M,0.0,M,,*62 $GPRMC,000000.000,V,5159.855,N,01642.547,E,0.00,0.00,010070,,*15 $GPGGA,000000.000,5159.855,N,01642.547,E,0,00,0.0,0.000,M,0.0,M,,*6A $GPRMC,000000.000,V,5159.806,N,01642.607,E,0.00,0.00,010070,,*14 $GPGGA,000000.000,5159.806,N,01642.607,E,0,00,0.0,0.000,M,0.0,M,,*6B $GPRMC,000000.000,V,5159.783,N,01642.637,E,0.00,0.00,010070,,*15 $GPGGA,000000.000,5159.783,N,01642.637,E,0,00,0.0,0.000,M,0.0,M,,*6A $GPRMC,000000.000,V,5159.781,N,01642.655,E,0.00,0.00,010070,,*13 $GPGGA,000000.000,5159.781,N,01642.655,E,0,00,0.0,0.000,M,0.0,M,,*6C $GPRMC,000000.000,V,5159.789,N,01642.682,E,0.00,0.00,010070,,*11 $GPGGA,000000.000,5159.789,N,01642.682,E,0,00,0.0,0.000,M,0.0,M,,*6E $GPRMC,000000.000,V,5159.792,N,01642.695,E,0.00,0.00,010070,,*1D $GPGGA,000000.000,5159.792,N,01642.695,E,0,00,0.0,0.000,M,0.0,M,,*62 $GPRMC,000000.000,V,5159.797,N,01642.709,E,0.00,0.00,010070,,*1C $GPGGA,000000.000,5159.797,N,01642.709,E,0,00,0.0,0.000,M,0.0,M,,*63 $GPRMC,000000.000,V,5159.829,N,01642.790,E,0.00,0.00,010070,,*16 $GPGGA,000000.000,5159.829,N,01642.790,E,0,00,0.0,0.000,M,0.0,M,,*69 $GPRMC,000000.000,V,5159.848,N,01642.834,E,0.00,0.00,010070,,*10 $GPGGA,000000.000,5159.848,N,01642.834,E,0,00,0.0,0.000,M,0.0,M,,*6F $GPRMC,000000.000,V,5159.892,N,01642.970,E,0.00,0.00,010070,,*16 $GPGGA,000000.000,5159.892,N,01642.970,E,0,00,0.0,0.000,M,0.0,M,,*69 $GPRMC,000000.000,V,5159.909,N,01643.009,E,0.00,0.00,010070,,*13 $GPGGA,000000.000,5159.909,N,01643.009,E,0,00,0.0,0.000,M,0.0,M,,*6C $GPRMC,000000.000,V,5159.923,N,01643.055,E,0.00,0.00,010070,,*12 $GPGGA,000000.000,5159.923,N,01643.055,E,0,00,0.0,0.000,M,0.0,M,,*6D $GPRMC,000000.000,V,5159.932,N,01643.094,E,0.00,0.00,010070,,*1F $GPGGA,000000.000,5159.932,N,01643.094,E,0,00,0.0,0.000,M,0.0,M,,*60 $GPRMC,000000.000,V,5159.938,N,01643.132,E,0.00,0.00,010070,,*18 $GPGGA,000000.000,5159.938,N,01643.132,E,0,00,0.0,0.000,M,0.0,M,,*67 $GPRMC,000000.000,V,5159.944,N,01643.176,E,0.00,0.00,010070,,*13 $GPGGA,000000.000,5159.944,N,01643.176,E,0,00,0.0,0.000,M,0.0,M,,*6C $GPRMC,000000.000,V,5159.945,N,01643.193,E,0.00,0.00,010070,,*19 $GPGGA,000000.000,5159.945,N,01643.193,E,0,00,0.0,0.000,M,0.0,M,,*66 $GPRMC,000000.000,V,5159.667,N,01643.226,E,0.00,0.00,010070,,*1B $GPGGA,000000.000,5159.667,N,01643.226,E,0,00,0.0,0.000,M,0.0,M,,*64 $GPRMC,000000.000,V,5159.324,N,01643.265,E,0.00,0.00,010070,,*1E $GPGGA,000000.000,5159.324,N,01643.265,E,0,00,0.0,0.000,M,0.0,M,,*61 $GPRMC,000000.000,V,5159.304,N,01643.161,E,0.00,0.00,010070,,*1B $GPGGA,000000.000,5159.304,N,01643.161,E,0,00,0.0,0.000,M,0.0,M,,*64 $GPRMC,000000.000,V,5159.282,N,01643.158,E,0.00,0.00,010070,,*1E $GPGGA,000000.000,5159.282,N,01643.158,E,0,00,0.0,0.000,M,0.0,M,,*61 $GPRMC,000000.000,V,5159.265,N,01643.085,E,0.00,0.00,010070,,*16 $GPGGA,000000.000,5159.265,N,01643.085,E,0,00,0.0,0.000,M,0.0,M,,*69 $GPRMC,000000.000,V,5159.247,N,01643.103,E,0.00,0.00,010070,,*19 $GPGGA,000000.000,5159.247,N,01643.103,E,0,00,0.0,0.000,M,0.0,M,,*66 $GPRMC,000000.000,V,5159.236,N,01643.112,E,0.00,0.00,010070,,*1F $GPGGA,000000.000,5159.236,N,01643.112,E,0,00,0.0,0.000,M,0.0,M,,*60 $GPRMC,000000.000,V,5159.223,N,01643.116,E,0.00,0.00,010070,,*1F $GPGGA,000000.000,5159.223,N,01643.116,E,0,00,0.0,0.000,M,0.0,M,,*60 $GPRMC,000000.000,V,5159.213,N,01643.112,E,0.00,0.00,010070,,*18 $GPGGA,000000.000,5159.213,N,01643.112,E,0,00,0.0,0.000,M,0.0,M,,*67 $GPRMC,000000.000,V,5159.197,N,01643.113,E,0.00,0.00,010070,,*16 $GPGGA,000000.000,5159.197,N,01643.113,E,0,00,0.0,0.000,M,0.0,M,,*69 $GPRMC,000000.000,V,5159.178,N,01643.118,E,0.00,0.00,010070,,*1C $GPGGA,000000.000,5159.178,N,01643.118,E,0,00,0.0,0.000,M,0.0,M,,*63 $GPRMC,000000.000,V,5159.161,N,01643.125,E,0.00,0.00,010070,,*1A $GPGGA,000000.000,5159.161,N,01643.125,E,0,00,0.0,0.000,M,0.0,M,,*65 $GPRMC,000000.000,V,5159.142,N,01643.134,E,0.00,0.00,010070,,*1B $GPGGA,000000.000,5159.142,N,01643.134,E,0,00,0.0,0.000,M,0.0,M,,*64 $GPRMC,000000.000,V,5159.135,N,01643.139,E,0.00,0.00,010070,,*16 $GPGGA,000000.000,5159.135,N,01643.139,E,0,00,0.0,0.000,M,0.0,M,,*69 $GPRMC,000000.000,V,5159.120,N,01643.019,E,0.00,0.00,010070,,*11 $GPGGA,000000.000,5159.120,N,01643.019,E,0,00,0.0,0.000,M,0.0,M,,*6E $GPRMC,000000.000,V,5159.117,N,01642.999,E,0.00,0.00,010070,,*15 $GPGGA,000000.000,5159.117,N,01642.999,E,0,00,0.0,0.000,M,0.0,M,,*6A $GPRMC,000000.000,V,5159.110,N,01642.986,E,0.00,0.00,010070,,*1C $GPGGA,000000.000,5159.110,N,01642.986,E,0,00,0.0,0.000,M,0.0,M,,*63 $GPRMC,000000.000,V,5159.078,N,01642.965,E,0.00,0.00,010070,,*1E $GPGGA,000000.000,5159.078,N,01642.965,E,0,00,0.0,0.000,M,0.0,M,,*61 $GPRMC,000000.000,V,5159.037,N,01642.935,E,0.00,0.00,010070,,*10 $GPGGA,000000.000,5159.037,N,01642.935,E,0,00,0.0,0.000,M,0.0,M,,*6F $GPRMC,000000.000,V,5158.996,N,01642.902,E,0.00,0.00,010070,,*17 $GPGGA,000000.000,5158.996,N,01642.902,E,0,00,0.0,0.000,M,0.0,M,,*68 $GPRMC,000000.000,V,5158.971,N,01642.892,E,0.00,0.00,010070,,*16 $GPGGA,000000.000,5158.971,N,01642.892,E,0,00,0.0,0.000,M,0.0,M,,*69 $GPRMC,000000.000,V,5158.945,N,01642.871,E,0.00,0.00,010070,,*1C $GPGGA,000000.000,5158.945,N,01642.871,E,0,00,0.0,0.000,M,0.0,M,,*63 $GPRMC,000000.000,V,5158.918,N,01642.869,E,0.00,0.00,010070,,*1D $GPGGA,000000.000,5158.918,N,01642.869,E,0,00,0.0,0.000,M,0.0,M,,*62 $GPRMC,000000.000,V,5158.891,N,01642.874,E,0.00,0.00,010070,,*11 $GPGGA,000000.000,5158.891,N,01642.874,E,0,00,0.0,0.000,M,0.0,M,,*6E $GPRMC,000000.000,V,5158.868,N,01642.880,E,0.00,0.00,010070,,*1C $GPGGA,000000.000,5158.868,N,01642.880,E,0,00,0.0,0.000,M,0.0,M,,*63 $GPRMC,000000.000,V,5158.834,N,01642.899,E,0.00,0.00,010070,,*1D $GPGGA,000000.000,5158.834,N,01642.899,E,0,00,0.0,0.000,M,0.0,M,,*62 $GPRMC,000000.000,V,5158.806,N,01642.916,E,0.00,0.00,010070,,*1A $GPGGA,000000.000,5158.806,N,01642.916,E,0,00,0.0,0.000,M,0.0,M,,*65 $GPRMC,000000.000,V,5158.781,N,01642.935,E,0.00,0.00,010070,,*1B $GPGGA,000000.000,5158.781,N,01642.935,E,0,00,0.0,0.000,M,0.0,M,,*64 $GPRMC,000000.000,V,5158.750,N,01642.961,E,0.00,0.00,010070,,*16 $GPGGA,000000.000,5158.750,N,01642.961,E,0,00,0.0,0.000,M,0.0,M,,*69 $GPRMC,000000.000,V,5158.671,N,01643.037,E,0.00,0.00,010070,,*1F $GPGGA,000000.000,5158.671,N,01643.037,E,0,00,0.0,0.000,M,0.0,M,,*60 $GPRMC,000000.000,V,5158.591,N,01643.109,E,0.00,0.00,010070,,*1E $GPGGA,000000.000,5158.591,N,01643.109,E,0,00,0.0,0.000,M,0.0,M,,*61 $GPRMC,000000.000,V,5158.529,N,01643.166,E,0.00,0.00,010070,,*14 $GPGGA,000000.000,5158.529,N,01643.166,E,0,00,0.0,0.000,M,0.0,M,,*6B $GPRMC,000000.000,V,5158.487,N,01643.203,E,0.00,0.00,010070,,*11 $GPGGA,000000.000,5158.487,N,01643.203,E,0,00,0.0,0.000,M,0.0,M,,*6E $GPRMC,000000.000,V,5158.433,N,01643.257,E,0.00,0.00,010070,,*1F $GPGGA,000000.000,5158.433,N,01643.257,E,0,00,0.0,0.000,M,0.0,M,,*60 $GPRMC,000000.000,V,5158.394,N,01643.300,E,0.00,0.00,010070,,*16 $GPGGA,000000.000,5158.394,N,01643.300,E,0,00,0.0,0.000,M,0.0,M,,*69 $GPRMC,000000.000,V,5158.335,N,01643.363,E,0.00,0.00,010070,,*18 $GPGGA,000000.000,5158.335,N,01643.363,E,0,00,0.0,0.000,M,0.0,M,,*67 $GPRMC,000000.000,V,5158.313,N,01643.386,E,0.00,0.00,010070,,*17 $GPGGA,000000.000,5158.313,N,01643.386,E,0,00,0.0,0.000,M,0.0,M,,*68 $GPRMC,000000.000,V,5158.305,N,01643.404,E,0.00,0.00,010070,,*1D $GPGGA,000000.000,5158.305,N,01643.404,E,0,00,0.0,0.000,M,0.0,M,,*62 $GPRMC,000000.000,V,5158.307,N,01643.417,E,0.00,0.00,010070,,*1D $GPGGA,000000.000,5158.307,N,01643.417,E,0,00,0.0,0.000,M,0.0,M,,*62 $GPRMC,000000.000,V,5158.298,N,01643.431,E,0.00,0.00,010070,,*1E $GPGGA,000000.000,5158.298,N,01643.431,E,0,00,0.0,0.000,M,0.0,M,,*61 $GPRMC,000000.000,V,5158.293,N,01643.450,E,0.00,0.00,010070,,*12 $GPGGA,000000.000,5158.293,N,01643.450,E,0,00,0.0,0.000,M,0.0,M,,*6D $GPRMC,000000.000,V,5158.281,N,01643.470,E,0.00,0.00,010070,,*13 $GPGGA,000000.000,5158.281,N,01643.470,E,0,00,0.0,0.000,M,0.0,M,,*6C $GPRMC,000000.000,V,5158.270,N,01643.484,E,0.00,0.00,010070,,*16 $GPGGA,000000.000,5158.270,N,01643.484,E,0,00,0.0,0.000,M,0.0,M,,*69 $GPRMC,000000.000,V,5158.259,N,01643.497,E,0.00,0.00,010070,,*1F $GPGGA,000000.000,5158.259,N,01643.497,E,0,00,0.0,0.000,M,0.0,M,,*60 $GPRMC,000000.000,V,5158.247,N,01643.505,E,0.00,0.00,010070,,*1A $GPGGA,000000.000,5158.247,N,01643.505,E,0,00,0.0,0.000,M,0.0,M,,*65 $GPRMC,000000.000,V,5158.213,N,01643.497,E,0.00,0.00,010070,,*11 $GPGGA,000000.000,5158.213,N,01643.497,E,0,00,0.0,0.000,M,0.0,M,,*6E $GPRMC,000000.000,V,5158.109,N,01643.483,E,0.00,0.00,010070,,*1C $GPGGA,000000.000,5158.109,N,01643.483,E,0,00,0.0,0.000,M,0.0,M,,*63 $GPRMC,000000.000,V,5158.002,N,01643.467,E,0.00,0.00,010070,,*1C $GPGGA,000000.000,5158.002,N,01643.467,E,0,00,0.0,0.000,M,0.0,M,,*63 $GPRMC,000000.000,V,5157.902,N,01643.456,E,0.00,0.00,010070,,*18 $GPGGA,000000.000,5157.902,N,01643.456,E,0,00,0.0,0.000,M,0.0,M,,*67 $GPRMC,000000.000,V,5157.861,N,01643.450,E,0.00,0.00,010070,,*1A $GPGGA,000000.000,5157.861,N,01643.450,E,0,00,0.0,0.000,M,0.0,M,,*65 $GPRMC,000000.000,V,5157.817,N,01643.461,E,0.00,0.00,010070,,*19 $GPGGA,000000.000,5157.817,N,01643.461,E,0,00,0.0,0.000,M,0.0,M,,*66 $GPRMC,000000.000,V,5157.779,N,01643.471,E,0.00,0.00,010070,,*1F $GPGGA,000000.000,5157.779,N,01643.471,E,0,00,0.0,0.000,M,0.0,M,,*60 $GPRMC,000000.000,V,5157.774,N,01643.443,E,0.00,0.00,010070,,*13 $GPGGA,000000.000,5157.774,N,01643.443,E,0,00,0.0,0.000,M,0.0,M,,*6C $GPRMC,000000.000,V,5157.755,N,01643.242,E,0.00,0.00,010070,,*17 $GPGGA,000000.000,5157.755,N,01643.242,E,0,00,0.0,0.000,M,0.0,M,,*68 $GPRMC,000000.000,V,5157.769,N,01643.180,E,0.00,0.00,010070,,*15 $GPGGA,000000.000,5157.769,N,01643.180,E,0,00,0.0,0.000,M,0.0,M,,*6A $GPRMC,000000.000,V,5157.792,N,01643.118,E,0.00,0.00,010070,,*10 $GPGGA,000000.000,5157.792,N,01643.118,E,0,00,0.0,0.000,M,0.0,M,,*6F $GPRMC,000000.000,V,5157.807,N,01643.077,E,0.00,0.00,010070,,*1B $GPGGA,000000.000,5157.807,N,01643.077,E,0,00,0.0,0.000,M,0.0,M,,*64 $GPRMC,000000.000,V,5157.818,N,01643.045,E,0.00,0.00,010070,,*14 $GPGGA,000000.000,5157.818,N,01643.045,E,0,00,0.0,0.000,M,0.0,M,,*6B $GPRMC,000000.000,V,5157.830,N,01643.009,E,0.00,0.00,010070,,*16 $GPGGA,000000.000,5157.830,N,01643.009,E,0,00,0.0,0.000,M,0.0,M,,*69 $GPRMC,000000.000,V,5157.839,N,01642.982,E,0.00,0.00,010070,,*14 $GPGGA,000000.000,5157.839,N,01642.982,E,0,00,0.0,0.000,M,0.0,M,,*6B $GPRMC,000000.000,V,5157.845,N,01642.947,E,0.00,0.00,010070,,*16 $GPGGA,000000.000,5157.845,N,01642.947,E,0,00,0.0,0.000,M,0.0,M,,*69 $GPRMC,000000.000,V,5157.856,N,01642.924,E,0.00,0.00,010070,,*11 $GPGGA,000000.000,5157.856,N,01642.924,E,0,00,0.0,0.000,M,0.0,M,,*6E $GPRMC,000000.000,V,5157.866,N,01642.906,E,0.00,0.00,010070,,*12 $GPGGA,000000.000,5157.866,N,01642.906,E,0,00,0.0,0.000,M,0.0,M,,*6D $GPRMC,000000.000,V,5157.890,N,01642.885,E,0.00,0.00,010070,,*11 $GPGGA,000000.000,5157.890,N,01642.885,E,0,00,0.0,0.000,M,0.0,M,,*6E $GPRMC,000000.000,V,5157.948,N,01642.850,E,0.00,0.00,010070,,*1D $GPGGA,000000.000,5157.948,N,01642.850,E,0,00,0.0,0.000,M,0.0,M,,*62 $GPRMC,000000.000,V,5157.991,N,01642.822,E,0.00,0.00,010070,,*1C $GPGGA,000000.000,5157.991,N,01642.822,E,0,00,0.0,0.000,M,0.0,M,,*63 $GPRMC,000000.000,V,5158.044,N,01642.789,E,0.00,0.00,010070,,*1C $GPGGA,000000.000,5158.044,N,01642.789,E,0,00,0.0,0.000,M,0.0,M,,*63 $GPRMC,000000.000,V,5158.106,N,01642.744,E,0.00,0.00,010070,,*1A $GPGGA,000000.000,5158.106,N,01642.744,E,0,00,0.0,0.000,M,0.0,M,,*65 $GPRMC,000000.000,V,5158.154,N,01642.717,E,0.00,0.00,010070,,*1B $GPGGA,000000.000,5158.154,N,01642.717,E,0,00,0.0,0.000,M,0.0,M,,*64 $GPRMC,000000.000,V,5158.214,N,01642.670,E,0.00,0.00,010070,,*1C $GPGGA,000000.000,5158.214,N,01642.670,E,0,00,0.0,0.000,M,0.0,M,,*63 $GPRMC,000000.000,V,5158.259,N,01642.639,E,0.00,0.00,010070,,*18 $GPGGA,000000.000,5158.259,N,01642.639,E,0,00,0.0,0.000,M,0.0,M,,*67 $GPRMC,000000.000,V,5158.440,N,01642.513,E,0.00,0.00,010070,,*1D $GPGGA,000000.000,5158.440,N,01642.513,E,0,00,0.0,0.000,M,0.0,M,,*62 $GPRMC,000000.000,V,5158.519,N,01642.458,E,0.00,0.00,010070,,*1E $GPGGA,000000.000,5158.519,N,01642.458,E,0,00,0.0,0.000,M,0.0,M,,*61 $GPRMC,000000.000,V,5158.582,N,01642.419,E,0.00,0.00,010070,,*19 $GPGGA,000000.000,5158.582,N,01642.419,E,0,00,0.0,0.000,M,0.0,M,,*66 $GPRMC,000000.000,V,5158.627,N,01642.387,E,0.00,0.00,010070,,*15 $GPGGA,000000.000,5158.627,N,01642.387,E,0,00,0.0,0.000,M,0.0,M,,*6A $GPRMC,000000.000,V,5158.653,N,01642.369,E,0.00,0.00,010070,,*16 $GPGGA,000000.000,5158.653,N,01642.369,E,0,00,0.0,0.000,M,0.0,M,,*69 $GPRMC,000000.000,V,5158.688,N,01642.345,E,0.00,0.00,010070,,*1E $GPGGA,000000.000,5158.688,N,01642.345,E,0,00,0.0,0.000,M,0.0,M,,*61 $GPRMC,000000.000,V,5158.715,N,01642.328,E,0.00,0.00,010070,,*10 $GPGGA,000000.000,5158.715,N,01642.328,E,0,00,0.0,0.000,M,0.0,M,,*6F $GPRMC,000000.000,V,5158.737,N,01642.317,E,0.00,0.00,010070,,*1C $GPGGA,000000.000,5158.737,N,01642.317,E,0,00,0.0,0.000,M,0.0,M,,*63 $GPRMC,000000.000,V,5158.755,N,01642.305,E,0.00,0.00,010070,,*1B $GPGGA,000000.000,5158.755,N,01642.305,E,0,00,0.0,0.000,M,0.0,M,,*64 $GPRMC,000000.000,V,5158.785,N,01642.294,E,0.00,0.00,010070,,*1F $GPGGA,000000.000,5158.785,N,01642.294,E,0,00,0.0,0.000,M,0.0,M,,*60 $GPRMC,000000.000,V,5158.829,N,01642.285,E,0.00,0.00,010070,,*16 $GPGGA,000000.000,5158.829,N,01642.285,E,0,00,0.0,0.000,M,0.0,M,,*69 $GPRMC,000000.000,V,5158.871,N,01642.275,E,0.00,0.00,010070,,*14 $GPGGA,000000.000,5158.871,N,01642.275,E,0,00,0.0,0.000,M,0.0,M,,*6B $GPRMC,000000.000,V,5158.945,N,01642.260,E,0.00,0.00,010070,,*16 $GPGGA,000000.000,5158.945,N,01642.260,E,0,00,0.0,0.000,M,0.0,M,,*69 $GPRMC,000000.000,V,5159.017,N,01642.243,E,0.00,0.00,010070,,*18 $GPGGA,000000.000,5159.017,N,01642.243,E,0,00,0.0,0.000,M,0.0,M,,*67 $GPRMC,000000.000,V,5159.086,N,01642.227,E,0.00,0.00,010070,,*12 $GPGGA,000000.000,5159.086,N,01642.227,E,0,00,0.0,0.000,M,0.0,M,,*6D $GPRMC,000000.000,V,5159.149,N,01642.213,E,0.00,0.00,010070,,*17 $GPGGA,000000.000,5159.149,N,01642.213,E,0,00,0.0,0.000,M,0.0,M,,*68 $GPRMC,000000.000,V,5159.219,N,01642.198,E,0.00,0.00,010070,,*11 $GPGGA,000000.000,5159.219,N,01642.198,E,0,00,0.0,0.000,M,0.0,M,,*6E $GPRMC,000000.000,V,5159.258,N,01642.189,E,0.00,0.00,010070,,*14 $GPGGA,000000.000,5159.258,N,01642.189,E,0,00,0.0,0.000,M,0.0,M,,*6B $GPRMC,000000.000,V,5159.289,N,01642.180,E,0.00,0.00,010070,,*11 $GPGGA,000000.000,5159.289,N,01642.180,E,0,00,0.0,0.000,M,0.0,M,,*6E $GPRMC,000000.000,V,5159.326,N,01642.169,E,0.00,0.00,010070,,*12 $GPGGA,000000.000,5159.326,N,01642.169,E,0,00,0.0,0.000,M,0.0,M,,*6D $GPRMC,000000.000,V,5159.353,N,01642.164,E,0.00,0.00,010070,,*1D $GPGGA,000000.000,5159.353,N,01642.164,E,0,00,0.0,0.000,M,0.0,M,,*62 $GPRMC,000000.000,V,5159.384,N,01642.155,E,0.00,0.00,010070,,*15 $GPGGA,000000.000,5159.384,N,01642.155,E,0,00,0.0,0.000,M,0.0,M,,*6A $GPRMC,000000.000,V,5159.415,N,01642.148,E,0.00,0.00,010070,,*16 $GPGGA,000000.000,5159.415,N,01642.148,E,0,00,0.0,0.000,M,0.0,M,,*69 $GPRMC,000000.000,V,5159.444,N,01642.142,E,0.00,0.00,010070,,*18 $GPGGA,000000.000,5159.444,N,01642.142,E,0,00,0.0,0.000,M,0.0,M,,*67 $GPRMC,000000.000,V,5159.474,N,01642.128,E,0.00,0.00,010070,,*17 $GPGGA,000000.000,5159.474,N,01642.128,E,0,00,0.0,0.000,M,0.0,M,,*68 $GPRMC,000000.000,V,5159.526,N,01642.095,E,0.00,0.00,010070,,*16 $GPGGA,000000.000,5159.526,N,01642.095,E,0,00,0.0,0.000,M,0.0,M,,*69 $GPRMC,000000.000,V,5159.600,N,01642.048,E,0.00,0.00,010070,,*11 $GPGGA,000000.000,5159.600,N,01642.048,E,0,00,0.0,0.000,M,0.0,M,,*6E $GPRMC,000000.000,V,5159.663,N,01642.005,E,0.00,0.00,010070,,*1D $GPGGA,000000.000,5159.663,N,01642.005,E,0,00,0.0,0.000,M,0.0,M,,*62 $GPRMC,000000.000,V,5159.719,N,01641.971,E,0.00,0.00,010070,,*18 $GPGGA,000000.000,5159.719,N,01641.971,E,0,00,0.0,0.000,M,0.0,M,,*67 $GPRMC,000000.000,V,5159.771,N,01641.911,E,0.00,0.00,010070,,*10 $GPGGA,000000.000,5159.771,N,01641.911,E,0,00,0.0,0.000,M,0.0,M,,*6F $GPRMC,000000.000,V,5159.820,N,01641.854,E,0.00,0.00,010070,,*1B $GPGGA,000000.000,5159.820,N,01641.854,E,0,00,0.0,0.000,M,0.0,M,,*64 $GPRMC,000000.000,V,5159.858,N,01641.809,E,0.00,0.00,010070,,*1C $GPGGA,000000.000,5159.858,N,01641.809,E,0,00,0.0,0.000,M,0.0,M,,*63 $GPRMC,000000.000,V,5159.894,N,01641.769,E,0.00,0.00,010070,,*15 $GPGGA,000000.000,5159.894,N,01641.769,E,0,00,0.0,0.000,M,0.0,M,,*6A $GPRMC,000000.000,V,5159.932,N,01641.725,E,0.00,0.00,010070,,*10 $GPGGA,000000.000,5159.932,N,01641.725,E,0,00,0.0,0.000,M,0.0,M,,*6F $GPRMC,000000.000,V,5159.962,N,01641.689,E,0.00,0.00,010070,,*12 $GPGGA,000000.000,5159.962,N,01641.689,E,0,00,0.0,0.000,M,0.0,M,,*6D $GPRMC,000000.000,V,5159.986,N,01641.649,E,0.00,0.00,010070,,*14 $GPGGA,000000.000,5159.986,N,01641.649,E,0,00,0.0,0.000,M,0.0,M,,*6B $GPRMC,000000.000,V,5200.012,N,01641.595,E,0.00,0.00,010070,,*1D $GPGGA,000000.000,5200.012,N,01641.595,E,0,00,0.0,0.000,M,0.0,M,,*62 $GPRMC,000000.000,V,5200.033,N,01641.530,E,0.00,0.00,010070,,*11 $GPGGA,000000.000,5200.033,N,01641.530,E,0,00,0.0,0.000,M,0.0,M,,*6E $GPRMC,000000.000,V,5200.053,N,01641.443,E,0.00,0.00,010070,,*12 $GPGGA,000000.000,5200.053,N,01641.443,E,0,00,0.0,0.000,M,0.0,M,,*6D $GPRMC,000000.000,V,5200.107,N,01641.210,E,0.00,0.00,010070,,*12 $GPGGA,000000.000,5200.107,N,01641.210,E,0,00,0.0,0.000,M,0.0,M,,*6D $GPRMC,000000.000,V,5200.121,N,01641.192,E,0.00,0.00,010070,,*1F $GPGGA,000000.000,5200.121,N,01641.192,E,0,00,0.0,0.000,M,0.0,M,,*60 $GPRMC,000000.000,V,5200.135,N,01641.177,E,0.00,0.00,010070,,*11 $GPGGA,000000.000,5200.135,N,01641.177,E,0,00,0.0,0.000,M,0.0,M,,*6E $GPRMC,000000.000,V,5200.150,N,01641.165,E,0.00,0.00,010070,,*11 $GPGGA,000000.000,5200.150,N,01641.165,E,0,00,0.0,0.000,M,0.0,M,,*6E $GPRMC,000000.000,V,5200.162,N,01641.204,E,0.00,0.00,010070,,*14 $GPGGA,000000.000,5200.162,N,01641.204,E,0,00,0.0,0.000,M,0.0,M,,*6B